createdAt,value
2023-05-14T08:01:13.049Z,26.64
2023-05-14T08:02:13.112Z,26.68
2023-05-14T08:03:13.207Z,26.66
2023-05-14T08:04:13.218Z,26.66
2023-05-14T08:05:13.145Z,26.68
2023-05-14T08:06:13.174Z,26.67
2023-05-14T08:07:13.200Z,26.67
2023-05-14T08:08:13.233Z,26.67
2023-05-14T08:09:13.290Z,26.70
2023-05-14T08:10:13.318Z,26.68
2023-05-14T08:11:13.386Z,26.71
2023-05-14T08:12:13.334Z,26.71
2023-05-14T08:13:13.333Z,26.73
2023-05-14T08:14:13.349Z,26.74
2023-05-14T08:15:13.364Z,26.74
2023-05-14T08:16:13.375Z,26.74
2023-05-14T08:17:13.467Z,26.77
2023-05-14T08:18:13.526Z,26.78
2023-05-14T08:19:13.803Z,26.80
2023-05-14T08:20:13.596Z,26.81
2023-05-14T08:21:13.708Z,26.80
2023-05-14T08:22:13.731Z,26.81
2023-05-14T08:23:13.778Z,26.84
2023-05-14T08:24:13.842Z,26.84
2023-05-14T08:25:13.917Z,26.83
2023-05-14T08:26:13.959Z,26.85
2023-05-14T08:27:14.042Z,26.90
2023-05-14T08:28:14.055Z,26.88
2023-05-14T08:29:16.241Z,26.88
2023-05-14T08:30:14.354Z,26.93
2023-05-14T08:31:14.462Z,26.90
2023-05-14T08:32:22.734Z,26.91
2023-05-14T08:33:15.466Z,26.91
2023-05-14T08:34:14.448Z,26.93
2023-05-14T08:35:14.423Z,26.95
2023-05-14T08:36:14.414Z,26.94
2023-05-14T08:37:14.391Z,26.94
2023-05-14T08:38:14.393Z,26.94
2023-05-14T08:39:14.411Z,26.95
2023-05-14T08:40:14.409Z,26.95
2023-05-14T08:41:14.371Z,26.98
2023-05-14T08:42:14.351Z,26.99
2023-05-14T08:43:14.374Z,26.98
2023-05-14T08:44:14.429Z,27.02
2023-05-14T08:45:14.437Z,26.99
2023-05-14T08:46:14.501Z,27.02
2023-05-14T08:47:14.497Z,27.02
2023-05-14T08:48:14.677Z,27.05
2023-05-14T08:49:14.604Z,27.02
2023-05-14T08:50:14.612Z,27.04
2023-05-14T08:51:14.619Z,27.05
2023-05-14T08:52:14.700Z,27.05
2023-05-14T08:53:14.717Z,27.05
2023-05-14T08:54:14.782Z,27.05
2023-05-14T08:55:14.762Z,27.05
2023-05-14T08:56:14.817Z,27.08
2023-05-14T08:57:14.888Z,27.11
2023-05-14T08:58:14.871Z,27.06
2023-05-14T08:59:14.919Z,27.08
2023-05-14T09:00:14.925Z,27.06
2023-05-14T09:01:15.070Z,27.09
2023-05-14T09:02:15.088Z,27.08
2023-05-14T09:03:15.103Z,27.08
2023-05-14T09:04:15.177Z,27.08
2023-05-14T09:05:15.128Z,27.08
2023-05-14T09:06:15.150Z,27.12
2023-05-14T09:07:15.167Z,27.09
2023-05-14T09:08:15.215Z,27.12
2023-05-14T09:09:15.255Z,27.12
2023-05-14T09:10:15.282Z,27.12
2023-05-14T09:11:15.300Z,27.14
2023-05-14T09:12:15.352Z,27.14
2023-05-14T09:13:15.377Z,27.11
2023-05-14T09:14:15.372Z,27.14
2023-05-14T09:15:15.437Z,27.16
2023-05-14T09:16:15.470Z,27.15
2023-05-14T09:17:15.462Z,27.14
2023-05-14T09:18:15.509Z,27.12
2023-05-14T09:19:15.691Z,27.14
2023-05-14T09:20:15.568Z,27.14
2023-05-14T09:21:15.569Z,27.12
2023-05-14T09:22:15.621Z,27.14
2023-05-14T09:23:15.669Z,27.14
2023-05-14T09:24:15.640Z,27.15
2023-05-14T09:25:15.700Z,27.14
2023-05-14T09:26:15.700Z,27.12
2023-05-14T09:27:15.727Z,27.16
2023-05-14T09:28:15.796Z,27.15
2023-05-14T09:29:15.791Z,27.15
2023-05-14T09:30:15.810Z,27.14
2023-05-14T09:31:15.881Z,27.15
2023-05-14T09:32:15.843Z,27.14
2023-05-14T09:33:15.878Z,27.15
2023-05-14T09:34:15.909Z,27.14
2023-05-14T09:35:15.924Z,27.14
2023-05-14T09:36:15.953Z,27.15
2023-05-14T09:37:15.977Z,27.15
2023-05-14T09:38:15.981Z,27.14
2023-05-14T09:39:16.021Z,27.15
2023-05-14T09:40:16.044Z,27.15
2023-05-14T09:41:16.101Z,27.14
2023-05-14T09:42:16.088Z,27.15
2023-05-14T09:43:16.090Z,27.14
2023-05-14T09:44:16.125Z,27.14
2023-05-14T09:45:16.192Z,27.16
2023-05-14T09:46:16.169Z,27.12
2023-05-14T09:47:16.294Z,27.14
2023-05-14T09:48:16.276Z,27.16
2023-05-14T09:49:16.250Z,27.14
2023-05-14T09:50:16.266Z,27.16
2023-05-14T09:51:16.290Z,27.15
2023-05-14T09:52:16.354Z,27.15
2023-05-14T09:53:16.337Z,27.16
2023-05-14T09:54:16.337Z,27.15
2023-05-14T09:55:16.389Z,27.15
2023-05-14T09:56:16.424Z,27.18
2023-05-14T09:57:16.444Z,27.18
2023-05-14T09:58:16.451Z,27.18
2023-05-14T09:59:16.462Z,27.16
2023-05-14T10:00:16.483Z,27.16
2023-05-14T10:01:16.534Z,27.19
2023-05-14T10:02:16.529Z,27.16
2023-05-14T10:03:19.622Z,27.18
2023-05-14T10:04:16.607Z,27.18
2023-05-14T10:05:16.546Z,27.15
2023-05-14T10:06:16.547Z,27.16
2023-05-14T10:07:16.553Z,27.16
2023-05-14T10:08:16.493Z,27.19
2023-05-14T10:09:16.511Z,27.15
2023-05-14T10:10:16.502Z,27.21
2023-05-14T10:11:16.491Z,27.18
2023-05-14T10:12:16.471Z,27.16
2023-05-14T10:13:16.448Z,27.18
2023-05-14T10:14:16.484Z,27.21
2023-05-14T10:15:16.428Z,27.18
2023-05-14T10:16:16.524Z,27.19
2023-05-14T10:17:16.442Z,27.19
2023-05-14T10:18:16.465Z,27.24
2023-05-14T10:19:16.835Z,27.19
2023-05-14T10:20:16.419Z,27.18
2023-05-14T10:21:16.410Z,27.21
2023-05-14T10:22:16.421Z,27.18
2023-05-14T10:23:16.399Z,27.21
2023-05-14T10:24:16.435Z,27.21
2023-05-14T10:25:16.381Z,27.18
2023-05-14T10:26:16.407Z,27.21
2023-05-14T10:27:16.385Z,27.19
2023-05-14T10:28:16.337Z,27.21
2023-05-14T10:29:16.351Z,27.19
2023-05-14T10:30:16.339Z,27.21
2023-05-14T10:31:16.405Z,27.21
2023-05-14T10:32:16.321Z,27.22
2023-05-14T10:33:16.415Z,27.21
2023-05-14T10:34:16.319Z,27.22
2023-05-14T10:35:16.318Z,27.21
2023-05-14T10:36:16.285Z,27.21
2023-05-14T10:37:16.298Z,27.21
2023-05-14T10:38:16.306Z,27.19
2023-05-14T10:39:16.271Z,27.21
2023-05-14T10:40:16.286Z,27.24
2023-05-14T10:41:16.244Z,27.21
2023-05-14T10:42:16.266Z,27.21
2023-05-14T10:43:16.235Z,27.22
2023-05-14T10:44:16.244Z,27.21
2023-05-14T10:45:16.218Z,27.22
2023-05-14T10:46:16.253Z,27.21
2023-05-14T10:47:16.206Z,27.21
2023-05-14T10:48:16.325Z,27.22
2023-05-14T10:49:20.982Z,27.22
2023-05-14T10:50:17.226Z,27.22
2023-05-14T10:51:16.244Z,27.24
2023-05-14T10:52:16.179Z,27.25
2023-05-14T10:53:16.185Z,27.22
2023-05-14T10:54:16.181Z,27.22
2023-05-14T10:55:16.180Z,27.21
2023-05-14T10:56:16.170Z,27.24
2023-05-14T10:57:16.152Z,27.24
2023-05-14T10:58:16.127Z,27.24
2023-05-14T10:59:16.115Z,27.22
2023-05-14T11:00:16.121Z,27.21
2023-05-14T11:01:16.111Z,27.24
2023-05-14T11:02:16.170Z,27.24
2023-05-14T11:03:16.125Z,27.22
2023-05-14T11:04:16.190Z,27.24
2023-05-14T11:05:16.271Z,27.22
2023-05-14T11:06:16.148Z,27.21
2023-05-14T11:07:16.080Z,27.24
2023-05-14T11:08:16.063Z,27.22
2023-05-14T11:09:16.055Z,27.24
2023-05-14T11:10:16.048Z,27.21
2023-05-14T11:11:16.048Z,27.24
2023-05-14T11:12:16.016Z,27.25
2023-05-14T11:13:16.091Z,27.25
2023-05-14T11:14:16.050Z,27.22
2023-05-14T11:15:16.025Z,27.22
2023-05-14T11:16:23.448Z,27.24
2023-05-14T11:17:17.129Z,27.24
2023-05-14T11:18:16.028Z,27.22
2023-05-14T11:19:16.011Z,27.25
2023-05-14T11:20:16.017Z,27.22
2023-05-14T11:21:16.021Z,27.25
2023-05-14T11:22:15.967Z,27.22
2023-05-14T11:23:15.968Z,27.22
2023-05-14T11:24:15.988Z,27.24
2023-05-14T11:25:15.964Z,27.24
2023-05-14T11:26:15.965Z,27.24
2023-05-14T11:27:15.958Z,27.22
2023-05-14T11:28:15.917Z,27.25
2023-05-14T11:29:16.032Z,27.22
2023-05-14T11:30:15.919Z,27.24
2023-05-14T11:31:15.913Z,27.24
2023-05-14T11:32:15.897Z,27.25
2023-05-14T11:33:15.928Z,27.24
2023-05-14T11:34:15.890Z,27.25
2023-05-14T11:35:15.883Z,27.25
2023-05-14T11:36:15.845Z,27.24
2023-05-14T11:37:15.865Z,27.24
2023-05-14T11:38:15.853Z,27.24
2023-05-14T11:39:15.833Z,27.26
2023-05-14T11:40:15.840Z,27.25
2023-05-14T11:41:15.841Z,27.24
2023-05-14T11:42:15.836Z,27.26
2023-05-14T11:43:15.823Z,27.25
2023-05-14T11:44:15.790Z,27.25
2023-05-14T11:45:15.785Z,27.26
2023-05-14T11:46:15.863Z,27.25
2023-05-14T11:47:15.813Z,27.25
2023-05-14T11:48:15.870Z,27.25
2023-05-14T11:49:15.768Z,27.24
2023-05-14T11:50:15.822Z,27.26
2023-05-14T11:51:15.770Z,27.26
2023-05-14T11:52:15.774Z,27.25
2023-05-14T11:53:15.766Z,27.26
2023-05-14T11:54:15.734Z,27.24
2023-05-14T11:55:15.741Z,27.24
2023-05-14T11:56:15.748Z,27.25
2023-05-14T11:57:15.758Z,27.22
2023-05-14T11:58:15.757Z,27.25
2023-05-14T11:59:15.784Z,27.25
2023-05-14T12:00:15.783Z,27.24
2023-05-14T12:01:15.787Z,27.26
2023-05-14T12:02:15.832Z,27.25
2023-05-14T12:03:15.944Z,27.26
2023-05-14T12:04:15.892Z,27.24
2023-05-14T12:05:15.824Z,27.26
2023-05-14T12:06:15.848Z,27.24
2023-05-14T12:07:15.829Z,27.25
2023-05-14T12:08:15.863Z,27.25
2023-05-14T12:09:15.882Z,27.25
2023-05-14T12:10:15.924Z,27.26
2023-05-14T12:11:15.868Z,27.24
2023-05-14T12:12:15.905Z,27.24
2023-05-14T12:13:15.902Z,27.25
2023-05-14T12:14:15.903Z,27.25
2023-05-14T12:15:15.919Z,27.28
2023-05-14T12:16:15.988Z,27.26
2023-05-14T12:17:15.912Z,27.25
2023-05-14T12:18:23.918Z,27.26
2023-05-14T12:19:16.964Z,27.25
2023-05-14T12:20:15.928Z,27.25
2023-05-14T12:21:15.924Z,27.24
2023-05-14T12:22:15.911Z,27.24
2023-05-14T12:23:15.897Z,27.28
2023-05-14T12:24:15.880Z,27.22
2023-05-14T12:25:15.886Z,27.25
2023-05-14T12:26:15.882Z,27.25
2023-05-14T12:27:15.866Z,27.25
2023-05-14T12:28:15.910Z,27.24
2023-05-14T12:29:15.876Z,27.26
2023-05-14T12:30:21.946Z,27.26
2023-05-14T12:31:16.883Z,27.24
2023-05-14T12:32:15.829Z,27.25
2023-05-14T12:33:15.811Z,27.25
2023-05-14T12:34:15.799Z,27.26
2023-05-14T12:35:15.801Z,27.25
2023-05-14T12:36:21.977Z,27.24
2023-05-14T12:37:16.794Z,27.25
2023-05-14T12:38:15.780Z,27.24
2023-05-14T12:39:15.769Z,27.22
2023-05-14T12:40:15.783Z,27.25
2023-05-14T12:41:15.792Z,27.24
2023-05-14T12:42:15.754Z,27.28
2023-05-14T12:43:15.761Z,27.24
2023-05-14T12:44:15.749Z,27.26
2023-05-14T12:45:15.736Z,27.26
2023-05-14T12:46:15.719Z,27.25
2023-05-14T12:47:15.791Z,27.28
2023-05-14T12:48:15.756Z,27.22
2023-05-14T12:49:15.715Z,27.25
2023-05-14T12:50:15.669Z,27.25
2023-05-14T12:51:15.692Z,27.24
2023-05-14T12:52:22.754Z,27.25
2023-05-14T12:53:16.712Z,27.26
2023-05-14T12:54:15.664Z,27.22
2023-05-14T12:55:15.666Z,27.25
2023-05-14T12:56:15.652Z,27.25
2023-05-14T12:57:15.664Z,27.25
2023-05-14T12:58:15.637Z,27.24
2023-05-14T12:59:15.601Z,27.25
2023-05-14T13:00:15.698Z,27.24
